createdAt,value
2022-11-10T00:02:32.305Z,15.65
2022-11-10T00:05:52.950Z,16.15
2022-11-10T00:09:14.713Z,16.20
2022-11-10T00:12:35.943Z,18.95
2022-11-10T00:16:21.168Z,18.02
2022-11-10T00:19:41.784Z,16.90
2022-11-10T00:23:02.605Z,16.15
2022-11-10T00:26:23.446Z,18.40
2022-11-10T00:29:43.778Z,18.73
2022-11-10T00:33:04.224Z,17.52
2022-11-10T00:36:24.951Z,17.73
2022-11-10T00:39:45.695Z,19.73
2022-11-10T00:43:06.525Z,18.00
2022-11-10T00:46:26.984Z,18.13
2022-11-10T00:49:47.479Z,17.52
2022-11-10T00:53:11.285Z,16.27
2022-11-10T00:56:31.979Z,17.80
2022-11-10T00:59:52.854Z,17.45
2022-11-10T01:03:17.797Z,15.65
2022-11-10T01:06:38.414Z,17.35
2022-11-10T01:09:59.311Z,17.38
2022-11-10T01:13:20.328Z,17.73
2022-11-10T01:16:41.337Z,17.33
2022-11-10T01:20:01.810Z,18.52
2022-11-10T01:23:22.746Z,17.40
2022-11-10T01:26:43.836Z,19.58
2022-11-10T01:30:05.316Z,16.42
2022-11-10T01:33:25.709Z,17.40
2022-11-10T01:36:46.341Z,20.02
2022-11-10T01:40:07.772Z,19.60
2022-11-10T01:43:29.427Z,17.65
2022-11-10T01:46:49.855Z,17.80
2022-11-10T01:50:11.202Z,16.88
2022-11-10T01:53:34.734Z,19.08
2022-11-10T01:57:00.162Z,19.95
2022-11-10T02:00:21.722Z,15.00
2022-11-10T02:03:48.362Z,18.30
2022-11-10T02:07:10.118Z,16.88
2022-11-10T02:10:30.926Z,18.45
2022-11-10T02:13:52.718Z,18.27
2022-11-10T02:17:14.045Z,18.30
2022-11-10T02:20:34.895Z,21.00
2022-11-10T02:23:55.846Z,20.92
2022-11-10T02:27:16.702Z,20.08
2022-11-10T02:30:37.635Z,18.67
2022-11-10T02:33:58.059Z,20.40
2022-11-10T02:37:19.074Z,19.92
2022-11-10T02:40:40.537Z,17.73
2022-11-10T02:44:02.360Z,18.23
2022-11-10T02:47:23.734Z,19.08
2022-11-10T02:50:44.641Z,17.98
2022-11-10T02:54:06.458Z,17.13
2022-11-10T02:57:27.076Z,17.48
2022-11-10T03:00:47.950Z,19.55
2022-11-10T03:04:08.965Z,19.63
2022-11-10T03:07:29.625Z,19.05
2022-11-10T03:10:57.072Z,20.27
2022-11-10T03:14:18.074Z,18.60
2022-11-10T03:17:39.361Z,22.58
2022-11-10T03:21:03.330Z,22.10
2022-11-10T03:24:24.294Z,20.30
2022-11-10T03:27:45.536Z,22.13
2022-11-10T03:31:06.510Z,19.90
2022-11-10T03:34:31.626Z,22.48
2022-11-10T03:37:52.906Z,22.15
2022-11-10T03:41:19.233Z,20.52
2022-11-10T03:44:41.352Z,19.48
2022-11-10T03:48:01.775Z,18.98
2022-11-10T03:51:23.124Z,22.05
2022-11-10T03:54:43.873Z,19.05
2022-11-10T03:58:04.824Z,21.20
2022-11-10T04:01:25.750Z,23.23
2022-11-10T04:05:05.640Z,18.70
2022-11-10T04:08:45.308Z,21.08
2022-11-10T04:12:25.166Z,23.53
2022-11-10T04:15:46.046Z,20.27
2022-11-10T04:19:06.914Z,19.60
2022-11-10T04:22:46.395Z,21.40
2022-11-10T04:26:32.054Z,21.88
2022-11-10T04:29:52.985Z,19.77
2022-11-10T04:33:13.439Z,18.95
2022-11-10T04:36:35.844Z,23.27
2022-11-10T04:39:56.298Z,18.92
2022-11-10T04:43:17.330Z,20.17
2022-11-10T04:46:40.326Z,21.30
2022-11-10T04:50:00.902Z,20.23
2022-11-10T04:53:22.579Z,16.85
2022-11-10T04:56:43.757Z,17.63
2022-11-10T05:00:07.558Z,15.10
2022-11-10T05:03:27.945Z,15.88
2022-11-10T05:06:49.058Z,17.55
2022-11-10T05:10:09.929Z,20.17
2022-11-10T05:13:30.778Z,19.25
2022-11-10T05:16:51.358Z,16.70
2022-11-10T05:20:12.650Z,16.88
2022-11-10T05:23:39.307Z,17.63
2022-11-10T05:27:00.422Z,17.58
2022-11-10T05:30:21.154Z,17.85
2022-11-10T05:33:41.670Z,18.05
2022-11-10T05:37:02.625Z,17.67
2022-11-10T05:40:24.292Z,18.38
2022-11-10T05:43:45.409Z,16.38
2022-11-10T05:47:06.291Z,16.77
2022-11-10T05:50:27.430Z,19.85
2022-11-10T05:53:48.265Z,20.92
2022-11-10T05:57:08.710Z,18.58
2022-11-10T06:00:31.103Z,23.73
2022-11-10T06:03:51.870Z,21.95
2022-11-10T06:07:12.832Z,20.65
2022-11-10T06:10:35.279Z,23.85
2022-11-10T06:13:55.735Z,23.38
2022-11-10T06:17:16.212Z,24.25
2022-11-10T06:20:37.045Z,24.40
2022-11-10T06:23:57.719Z,27.85
2022-11-10T06:27:18.174Z,26.83
2022-11-10T06:30:39.331Z,24.27
2022-11-10T06:34:00.391Z,28.50
2022-11-10T06:37:21.170Z,30.10
2022-11-10T06:40:42.429Z,23.75
2022-11-10T06:44:03.474Z,23.77
2022-11-10T06:47:24.396Z,27.13
2022-11-10T06:50:45.875Z,25.08
2022-11-10T06:54:07.063Z,26.95
2022-11-10T06:57:27.923Z,26.83
2022-11-10T07:00:48.850Z,25.55
2022-11-10T07:04:25.360Z,24.45
2022-11-10T07:07:46.573Z,27.20
2022-11-10T07:11:07.475Z,27.27
2022-11-10T07:14:28.483Z,28.10
2022-11-10T07:17:49.806Z,28.17
2022-11-10T07:21:10.552Z,24.80
2022-11-10T07:24:31.567Z,28.48
2022-11-10T07:27:57.112Z,26.85
2022-11-10T07:31:17.808Z,29.45
2022-11-10T07:34:38.362Z,28.40
2022-11-10T07:38:03.072Z,29.13
2022-11-10T07:41:24.025Z,29.92
2022-11-10T07:44:44.954Z,30.45
2022-11-10T07:48:07.143Z,29.67
2022-11-10T07:51:27.803Z,31.08
2022-11-10T07:54:48.130Z,29.65
2022-11-10T07:58:09.618Z,27.17
2022-11-10T08:01:30.898Z,33.28
2022-11-10T08:04:52.213Z,29.83
2022-11-10T08:08:13.608Z,28.70
2022-11-10T08:11:34.817Z,32.92
2022-11-10T08:14:55.628Z,28.55
2022-11-10T08:18:21.356Z,30.58
2022-11-10T08:21:42.016Z,32.22
2022-11-10T08:25:05.943Z,31.17
2022-11-10T08:28:27.497Z,32.90
2022-11-10T08:31:48.205Z,28.83
2022-11-10T08:35:09.134Z,30.95
2022-11-10T08:38:29.680Z,29.25
2022-11-10T08:41:50.098Z,29.98
2022-11-10T08:45:11.296Z,25.85
2022-11-10T08:48:31.826Z,28.25
2022-11-10T08:51:52.727Z,27.80
2022-11-10T08:55:13.082Z,31.25
2022-11-10T08:58:33.902Z,30.70
2022-11-10T09:01:54.425Z,25.25
2022-11-10T09:05:15.013Z,26.05
2022-11-10T09:08:35.700Z,26.15
2022-11-10T09:11:56.714Z,23.95
2022-11-10T09:15:19.951Z,27.55
2022-11-10T09:18:40.936Z,28.55
2022-11-10T09:22:01.842Z,26.67
2022-11-10T09:25:23.772Z,27.23
2022-11-10T09:28:44.677Z,28.83
2022-11-10T09:32:05.912Z,29.52
2022-11-10T09:35:27.366Z,25.10
2022-11-10T09:38:48.338Z,24.70
2022-11-10T09:42:27.937Z,22.60
2022-11-10T09:45:52.525Z,25.60
2022-11-10T09:49:13.270Z,24.80
2022-11-10T09:52:36.880Z,23.48
2022-11-10T09:56:02.352Z,24.27
2022-11-10T09:59:29.565Z,21.98
2022-11-10T10:03:02.121Z,24.08
2022-11-10T10:06:23.540Z,26.38
2022-11-10T10:10:01.160Z,24.05
2022-11-10T10:13:46.040Z,22.40
2022-11-10T10:17:45.576Z,24.23
2022-11-10T10:21:33.092Z,22.83
2022-11-10T10:24:56.959Z,21.05
2022-11-10T10:28:26.005Z,23.73
2022-11-10T10:31:52.383Z,23.38
2022-11-10T10:35:18.152Z,23.50
2022-11-10T10:38:40.868Z,22.50
2022-11-10T10:42:02.050Z,21.70
2022-11-10T10:45:32.133Z,21.70
2022-11-10T10:53:12.405Z,23.92
2022-11-10T10:56:33.515Z,21.15
2022-11-10T11:00:18.394Z,21.55
2022-11-10T11:03:43.539Z,19.70
2022-11-10T11:07:19.194Z,20.35
2022-11-10T11:10:46.027Z,22.98
2022-11-10T11:14:22.885Z,22.08
2022-11-10T11:17:57.998Z,18.60
2022-11-10T11:21:58.460Z,20.92
2022-11-10T11:25:42.102Z,20.45
2022-11-10T11:29:31.846Z,17.35
2022-11-10T11:36:42.936Z,17.33
2022-11-10T11:40:26.515Z,18.88
2022-11-10T11:44:04.856Z,19.33
2022-11-10T11:47:52.698Z,16.25
2022-11-10T11:51:20.196Z,19.10
2022-11-10T11:54:41.179Z,18.25
2022-11-10T11:58:01.952Z,17.50
2022-11-10T12:01:55.312Z,16.27
2022-11-10T12:05:27.687Z,17.90
2022-11-10T12:09:11.584Z,17.50
2022-11-10T12:12:56.733Z,16.95
2022-11-10T12:16:31.907Z,16.88
2022-11-10T12:20:22.138Z,15.52
2022-11-10T12:27:21.059Z,16.00
2022-11-10T12:30:43.195Z,17.92
2022-11-10T12:34:36.038Z,17.63
2022-11-10T12:38:04.366Z,18.90
2022-11-10T12:41:32.748Z,17.55
2022-11-10T12:45:20.996Z,16.50
2022-11-10T12:48:53.492Z,17.63
2022-11-10T12:52:24.013Z,16.58
2022-11-10T12:55:53.075Z,17.95
2022-11-10T12:59:26.064Z,18.20
2022-11-10T13:02:47.547Z,18.48
2022-11-10T13:06:28.958Z,19.77
2022-11-10T13:09:50.019Z,19.75
2022-11-10T13:13:15.350Z,15.30
2022-11-10T13:16:39.213Z,16.30
2022-11-10T13:20:27.885Z,17.70
2022-11-10T13:23:43.568Z,18.90
2022-11-10T13:27:05.863Z,17.67
2022-11-10T13:30:41.911Z,18.17
2022-11-10T13:34:12.417Z,16.63
2022-11-10T13:37:33.078Z,16.75
2022-11-10T13:40:54.270Z,15.90
2022-11-10T13:44:27.039Z,16.08
2022-11-10T13:48:00.104Z,17.75
2022-11-10T13:51:30.824Z,18.20
2022-11-10T13:55:05.175Z,19.48
2022-11-10T13:58:31.135Z,18.92
2022-11-10T14:01:51.649Z,16.40
2022-11-10T14:05:38.939Z,15.52
2022-11-10T14:09:32.242Z,14.75
2022-11-10T14:13:02.917Z,17.02
2022-11-10T14:19:46.579Z,12.40
2022-11-10T14:23:16.430Z,16.58
2022-11-10T14:26:46.396Z,15.75
2022-11-10T14:30:25.005Z,12.93
2022-11-10T14:33:57.301Z,19.55
2022-11-10T14:37:23.434Z,15.00
2022-11-10T14:40:43.912Z,16.33
2022-11-10T14:44:06.801Z,17.10
2022-11-10T14:47:31.359Z,17.83
2022-11-10T14:50:53.235Z,16.88
2022-11-10T14:54:23.608Z,15.98
2022-11-10T14:58:02.460Z,15.35
2022-11-10T15:01:24.602Z,16.17
2022-11-10T15:04:50.215Z,14.57
2022-11-10T15:08:11.175Z,16.05
2022-11-10T15:11:34.543Z,15.07
2022-11-10T15:15:00.700Z,15.50
2022-11-10T15:18:27.104Z,15.48
2022-11-10T15:21:48.191Z,16.13
2022-11-10T15:25:15.979Z,15.60
2022-11-10T15:28:37.294Z,15.45
2022-11-10T15:31:58.339Z,19.15
2022-11-10T15:35:28.732Z,16.90
2022-11-10T15:39:20.314Z,16.77
2022-11-10T15:42:40.956Z,16.10
2022-11-10T15:46:20.827Z,14.60
2022-11-10T15:49:42.568Z,15.57
2022-11-10T15:53:09.092Z,15.55
2022-11-10T15:56:29.886Z,13.15
2022-11-10T15:59:50.801Z,15.68
2022-11-10T16:03:13.900Z,15.18
2022-11-10T16:06:35.242Z,15.43
2022-11-10T16:09:56.373Z,18.00
2022-11-10T16:13:24.134Z,15.57
2022-11-10T16:16:45.797Z,14.00
2022-11-10T16:20:15.138Z,17.20
2022-11-10T16:23:35.909Z,17.40
2022-11-10T16:26:57.074Z,18.23
2022-11-10T16:30:17.988Z,18.00
2022-11-10T16:33:38.972Z,17.02
2022-11-10T16:37:00.092Z,18.25
2022-11-10T16:40:23.666Z,17.25
2022-11-10T16:43:44.602Z,20.10
2022-11-10T16:47:05.237Z,20.20
2022-11-10T16:50:35.096Z,20.25
2022-11-10T16:53:56.161Z,20.02
2022-11-10T16:57:17.762Z,18.88
2022-11-10T17:00:39.627Z,20.90
2022-11-10T17:04:04.623Z,20.90
2022-11-10T17:07:27.061Z,19.05
2022-11-10T17:10:47.921Z,24.67
2022-11-10T17:14:11.277Z,18.83
2022-11-10T17:17:35.492Z,20.20
2022-11-10T17:20:56.577Z,19.52
2022-11-10T17:24:18.889Z,21.48
2022-11-10T17:27:39.917Z,24.08
2022-11-10T17:31:01.021Z,23.23
2022-11-10T17:34:22.117Z,22.10
2022-11-10T17:37:46.503Z,22.98
2022-11-10T17:41:14.172Z,23.70
2022-11-10T17:44:34.824Z,25.55
2022-11-10T17:47:56.072Z,19.42
2022-11-10T17:51:21.850Z,24.15
2022-11-10T17:54:43.136Z,24.98
2022-11-10T17:58:03.611Z,24.33
2022-11-10T18:01:24.918Z,24.70
2022-11-10T18:04:45.566Z,28.40
2022-11-10T18:08:06.008Z,23.92
2022-11-10T18:11:26.866Z,27.48
2022-11-10T18:14:47.938Z,27.33
2022-11-10T18:18:14.500Z,24.02
2022-11-10T18:21:35.253Z,23.92
2022-11-10T18:24:55.896Z,23.80
2022-11-10T18:28:17.171Z,25.33
2022-11-10T18:31:38.276Z,27.30
2022-11-10T18:34:59.226Z,28.40
2022-11-10T18:38:19.831Z,27.63
2022-11-10T18:41:49.607Z,23.77
2022-11-10T18:45:11.294Z,23.70
2022-11-10T18:48:36.998Z,26.92
2022-11-10T18:51:58.513Z,22.35
2022-11-10T18:55:20.357Z,29.42
2022-11-10T18:58:42.090Z,26.85
2022-11-10T19:02:02.780Z,24.08
2022-11-10T19:05:23.785Z,21.85
2022-11-10T19:08:45.792Z,22.17
2022-11-10T19:12:07.046Z,24.25
2022-11-10T19:15:28.053Z,24.88
2022-11-10T19:18:48.983Z,22.08
2022-11-10T19:22:09.701Z,25.85
2022-11-10T19:25:30.918Z,23.65
2022-11-10T19:28:53.514Z,23.90
2022-11-10T19:32:14.593Z,22.83
2022-11-10T19:35:40.667Z,26.60
2022-11-10T19:39:01.757Z,23.52
2022-11-10T19:42:22.192Z,25.88
2022-11-10T19:45:42.729Z,24.20
2022-11-10T19:49:04.387Z,21.63
2022-11-10T19:52:25.146Z,23.85
2022-11-10T19:55:45.633Z,24.92
2022-11-10T19:59:06.965Z,23.40
2022-11-10T20:02:27.801Z,21.38
2022-11-10T20:05:59.009Z,23.40
2022-11-10T20:09:19.829Z,22.30
2022-11-10T20:12:41.136Z,23.27
2022-11-10T20:16:06.831Z,23.15
2022-11-10T20:19:27.259Z,24.38
2022-11-10T20:22:47.862Z,22.65
2022-11-10T20:26:18.073Z,24.40
2022-11-10T20:36:22.548Z,18.13
2022-11-10T20:39:43.433Z,20.42
2022-11-10T20:43:04.746Z,21.70
2022-11-10T20:46:54.192Z,21.35
2022-11-10T20:50:13.102Z,22.70
2022-11-10T20:53:35.755Z,21.25
2022-11-10T20:56:56.515Z,22.15
2022-11-10T21:00:17.309Z,21.67
2022-11-10T21:03:38.972Z,21.95
2022-11-10T21:06:59.932Z,22.30
2022-11-10T21:10:20.851Z,16.80
2022-11-10T21:13:42.171Z,21.45
2022-11-10T21:17:03.257Z,20.10
2022-11-10T21:20:23.741Z,17.05
2022-11-10T21:23:44.610Z,18.08
2022-11-10T21:27:05.485Z,17.27
2022-11-10T21:30:25.799Z,17.80
2022-11-10T21:33:46.248Z,16.83
2022-11-10T21:37:06.756Z,15.27
2022-11-10T21:40:27.197Z,17.73
2022-11-10T21:43:47.517Z,17.95
2022-11-10T21:47:09.803Z,15.30
2022-11-10T21:50:30.328Z,16.95
2022-11-10T21:53:50.723Z,17.02
2022-11-10T21:57:11.778Z,16.88
2022-11-10T22:00:32.534Z,16.77
2022-11-10T22:03:53.428Z,14.95
2022-11-10T22:07:23.182Z,17.77
2022-11-10T22:11:03.357Z,18.55
2022-11-10T22:14:43.084Z,18.35
2022-11-10T22:18:22.645Z,18.67
2022-11-10T22:21:44.361Z,19.57
2022-11-10T22:25:05.327Z,18.60
2022-11-10T22:28:25.881Z,17.70
2022-11-10T22:31:46.776Z,17.80
2022-11-10T22:35:07.718Z,17.73
2022-11-10T22:38:28.079Z,19.48
2022-11-10T22:42:07.233Z,17.15
2022-11-10T22:45:28.094Z,17.40
2022-11-10T22:48:48.699Z,17.60
2022-11-10T22:52:09.402Z,16.05
2022-11-10T22:55:30.115Z,18.55
2022-11-10T22:58:55.598Z,16.08
2022-11-10T23:02:19.058Z,16.85
2022-11-10T23:05:39.671Z,15.93
2022-11-10T23:09:00.643Z,20.60
2022-11-10T23:12:21.265Z,17.90
2022-11-10T23:15:42.577Z,15.82
2022-11-10T23:19:03.565Z,16.40
2022-11-10T23:22:24.594Z,16.35
2022-11-10T23:25:55.858Z,15.15
2022-11-10T23:29:16.477Z,16.38
2022-11-10T23:32:37.150Z,16.58
2022-11-10T23:35:58.173Z,17.85
2022-11-10T23:39:19.321Z,17.85
2022-11-10T23:42:39.940Z,17.00
2022-11-10T23:46:06.989Z,15.45
2022-11-10T23:49:28.301Z,16.48
2022-11-10T23:52:49.201Z,14.93
2022-11-10T23:56:14.268Z,17.45
2022-11-10T23:59:34.670Z,15.90
